createdAt,value
2022-11-17T00:00:46.855Z,49.47
2022-11-17T00:03:16.079Z,44.05
2022-11-17T00:05:44.694Z,42.88
2022-11-17T00:08:14.683Z,50.08
2022-11-17T00:10:41.539Z,45.38
2022-11-17T00:13:29.714Z,42.15
2022-11-17T00:15:57.778Z,40.55
2022-11-17T00:18:42.934Z,43.03
2022-11-17T00:21:19.262Z,42.00
2022-11-17T00:23:50.554Z,41.35
2022-11-17T00:26:23.984Z,44.50
2022-11-17T00:29:01.808Z,47.78
2022-11-17T00:31:48.607Z,47.35
2022-11-17T00:34:21.455Z,48.05
2022-11-17T00:36:50.598Z,45.60
2022-11-17T00:39:19.210Z,47.00
2022-11-17T00:41:48.565Z,47.40
2022-11-17T00:44:15.659Z,43.17
2022-11-17T00:46:43.501Z,43.38
2022-11-17T00:49:11.686Z,48.60
2022-11-17T00:51:38.567Z,42.67
2022-11-17T00:54:10.049Z,46.60
2022-11-17T00:56:36.928Z,43.78
2022-11-17T00:59:04.224Z,41.05
2022-11-17T01:01:31.853Z,47.30
2022-11-17T01:04:04.568Z,41.50
2022-11-17T01:06:35.947Z,43.15
2022-11-17T01:09:10.150Z,42.55
2022-11-17T01:11:37.438Z,43.05
2022-11-17T01:14:04.658Z,39.13
2022-11-17T01:16:32.340Z,42.22
2022-11-17T01:19:01.173Z,46.20
2022-11-17T01:21:29.246Z,42.45
2022-11-17T01:23:57.987Z,45.47
2022-11-17T01:26:30.898Z,45.67
2022-11-17T01:28:59.775Z,41.45
2022-11-17T01:31:29.521Z,47.13
2022-11-17T01:33:59.479Z,44.75
2022-11-17T01:36:53.797Z,47.33
2022-11-17T01:39:20.627Z,46.67
2022-11-17T01:41:47.521Z,43.13
2022-11-17T01:44:36.272Z,43.90
2022-11-17T01:47:16.142Z,42.58
2022-11-17T01:49:50.065Z,41.13
2022-11-17T01:52:20.658Z,39.85
2022-11-17T01:54:48.665Z,41.88
2022-11-17T01:57:24.334Z,38.50
2022-11-17T02:00:06.069Z,37.55
2022-11-17T02:02:34.871Z,40.65
2022-11-17T02:05:29.177Z,41.53
2022-11-17T02:07:59.467Z,36.13
2022-11-17T02:10:27.217Z,35.78
2022-11-17T02:12:55.155Z,36.72
2022-11-17T02:15:22.969Z,35.40
2022-11-17T02:17:51.316Z,33.55
2022-11-17T02:20:30.852Z,33.92
2022-11-17T02:23:11.767Z,34.38
2022-11-17T02:25:45.759Z,31.67
2022-11-17T02:28:26.248Z,33.72
2022-11-17T02:31:02.066Z,31.10
2022-11-17T02:33:47.717Z,32.80
2022-11-17T02:36:20.883Z,31.40
2022-11-17T02:38:50.316Z,33.47
2022-11-17T02:41:38.150Z,31.35
2022-11-17T02:44:08.474Z,33.17
2022-11-17T02:46:54.256Z,28.60
2022-11-17T02:49:31.472Z,28.35
2022-11-17T02:51:59.483Z,28.63
2022-11-17T02:54:29.866Z,30.58
2022-11-17T02:56:56.734Z,26.00
2022-11-17T02:59:47.464Z,27.98
2022-11-17T03:02:36.002Z,24.40
2022-11-17T03:05:10.714Z,27.58
2022-11-17T03:08:12.105Z,26.00
2022-11-17T03:10:50.959Z,22.67
2022-11-17T03:13:42.569Z,29.42
2022-11-17T03:16:27.885Z,27.35
2022-11-17T03:19:00.754Z,34.90
2022-11-17T03:21:40.451Z,21.60
2022-11-17T03:24:13.197Z,25.55
2022-11-17T03:26:46.027Z,39.20
2022-11-17T03:29:18.239Z,39.60
2022-11-17T03:31:48.499Z,54.42
2022-11-17T03:34:19.538Z,32.53
2022-11-17T03:36:53.951Z,66.82
2022-11-17T03:39:28.019Z,34.92
2022-11-17T03:41:59.888Z,34.15
2022-11-17T03:44:30.124Z,20.75
2022-11-17T03:47:01.412Z,21.92
2022-11-17T03:49:47.578Z,29.80
2022-11-17T03:52:14.338Z,17.17
2022-11-17T03:54:41.198Z,18.08
2022-11-17T03:57:15.457Z,28.80
2022-11-17T04:00:05.012Z,21.70
2022-11-17T04:02:48.475Z,23.33
2022-11-17T04:05:17.668Z,17.45
2022-11-17T04:07:46.804Z,14.33
2022-11-17T04:10:16.391Z,23.87
2022-11-17T04:13:01.618Z,21.02
2022-11-17T04:15:47.445Z,16.52
2022-11-17T04:18:15.289Z,16.95
2022-11-17T04:20:43.066Z,15.90
2022-11-17T04:23:14.702Z,22.80
2022-11-17T04:26:14.564Z,17.88
2022-11-17T04:28:48.450Z,19.65
2022-11-17T04:31:16.507Z,16.63
2022-11-17T04:33:54.566Z,20.13
2022-11-17T04:36:26.345Z,17.55
2022-11-17T04:38:55.327Z,15.90
2022-11-17T04:41:42.112Z,17.20
2022-11-17T04:44:10.567Z,19.25
2022-11-17T04:46:39.190Z,21.05
2022-11-17T04:49:07.318Z,22.58
2022-11-17T04:51:35.029Z,23.95
2022-11-17T04:54:02.779Z,70.15
2022-11-17T04:56:30.035Z,56.15
2022-11-17T04:58:57.183Z,21.70
2022-11-17T05:01:25.342Z,20.88
2022-11-17T05:03:53.242Z,36.40
2022-11-17T05:06:28.559Z,24.98
2022-11-17T05:08:56.576Z,31.42
2022-11-17T05:11:44.531Z,41.97
2022-11-17T05:14:12.284Z,34.92
2022-11-17T05:16:58.009Z,41.05
2022-11-17T05:19:27.249Z,35.55
2022-11-17T05:21:54.653Z,31.67
2022-11-17T05:24:21.921Z,22.75
2022-11-17T05:26:49.777Z,30.98
2022-11-17T05:29:18.793Z,51.83
2022-11-17T05:31:45.827Z,38.45
2022-11-17T05:34:14.337Z,55.55
2022-11-17T05:36:41.827Z,38.63
2022-11-17T05:39:09.345Z,45.38
2022-11-17T05:41:39.423Z,55.08
2022-11-17T05:46:32.866Z,50.08
2022-11-17T05:48:59.806Z,44.85
2022-11-17T05:51:26.746Z,55.25
2022-11-17T05:53:53.434Z,63.55
2022-11-17T05:56:51.079Z,70.45
2022-11-17T05:59:27.294Z,55.50
2022-11-17T06:02:07.409Z,58.25
2022-11-17T06:04:34.795Z,54.60
2022-11-17T06:07:02.598Z,40.78
2022-11-17T06:09:35.044Z,40.92
2022-11-17T06:12:05.902Z,38.78
2022-11-17T06:14:34.539Z,40.85
2022-11-17T06:17:07.117Z,31.05
2022-11-17T06:19:43.717Z,44.40
2022-11-17T06:22:12.615Z,33.35
2022-11-17T06:24:41.997Z,30.00
2022-11-17T06:27:10.787Z,30.10
2022-11-17T06:29:42.652Z,37.67
2022-11-17T06:32:10.895Z,30.38
2022-11-17T06:34:37.687Z,34.55
2022-11-17T06:37:04.373Z,36.30
2022-11-17T06:39:31.005Z,53.30
2022-11-17T06:41:57.697Z,70.47
2022-11-17T06:44:24.435Z,53.03
2022-11-17T06:46:51.093Z,74.10
2022-11-17T06:49:17.800Z,54.58
2022-11-17T06:51:45.556Z,52.53
2022-11-17T06:54:14.860Z,51.20
2022-11-17T06:56:42.201Z,30.50
2022-11-17T06:59:08.996Z,31.83
2022-11-17T07:01:37.087Z,23.02
2022-11-17T07:04:03.856Z,26.85
2022-11-17T07:06:36.157Z,27.80
2022-11-17T07:09:03.203Z,23.90
2022-11-17T07:11:29.872Z,21.38
2022-11-17T07:13:58.300Z,20.33
2022-11-17T07:16:24.991Z,19.85
2022-11-17T07:18:53.096Z,21.48
2022-11-17T07:21:20.154Z,23.92
2022-11-17T07:23:47.239Z,41.13
2022-11-17T07:26:14.437Z,18.83
2022-11-17T07:28:41.271Z,17.55
2022-11-17T07:31:09.129Z,31.70
2022-11-17T07:33:36.810Z,42.72
2022-11-17T07:36:11.256Z,48.50
2022-11-17T07:38:40.141Z,31.30
2022-11-17T07:41:09.010Z,33.17
2022-11-17T07:43:36.930Z,28.10
2022-11-17T07:46:14.680Z,42.22
2022-11-17T07:48:43.405Z,32.38
2022-11-17T07:51:10.513Z,51.80
2022-11-17T07:53:37.207Z,23.55
2022-11-17T07:56:11.407Z,19.67
2022-11-17T07:58:38.945Z,17.40
2022-11-17T08:01:07.536Z,20.90
2022-11-17T08:03:34.422Z,37.25
2022-11-17T08:06:03.046Z,32.05
2022-11-17T08:08:29.774Z,26.92
2022-11-17T08:11:02.753Z,21.08
2022-11-17T08:13:29.435Z,18.48
2022-11-17T08:15:57.367Z,14.40
2022-11-17T08:18:24.077Z,19.20
2022-11-17T08:20:50.933Z,70.05
2022-11-17T08:23:18.094Z,28.67
2022-11-17T08:25:44.875Z,15.85
2022-11-17T08:28:11.595Z,18.98
2022-11-17T08:30:38.265Z,17.67
2022-11-17T08:33:05.024Z,45.30
2022-11-17T08:35:37.438Z,38.92
2022-11-17T08:38:04.486Z,48.72
2022-11-17T08:40:31.236Z,34.22
2022-11-17T08:43:01.568Z,35.42
2022-11-17T08:45:29.006Z,34.72
2022-11-17T08:47:56.623Z,19.70
2022-11-17T08:50:23.720Z,24.30
2022-11-17T08:52:52.154Z,19.23
2022-11-17T08:55:19.345Z,25.45
2022-11-17T08:57:46.065Z,22.08
2022-11-17T09:00:15.374Z,18.92
2022-11-17T09:02:42.107Z,37.10
2022-11-17T09:05:09.141Z,22.05
2022-11-17T09:07:35.854Z,39.40
2022-11-17T09:10:05.459Z,16.55
2022-11-17T09:12:32.610Z,19.83
2022-11-17T09:14:59.290Z,17.20
2022-11-17T09:17:25.988Z,17.98
2022-11-17T09:19:52.622Z,17.33
2022-11-17T09:22:19.896Z,16.40
2022-11-17T09:24:46.608Z,29.00
2022-11-17T09:27:13.919Z,19.23
2022-11-17T09:29:40.612Z,24.45
2022-11-17T09:32:07.321Z,17.95
2022-11-17T09:34:34.176Z,19.35
2022-11-17T09:37:00.992Z,19.25
2022-11-17T09:39:27.832Z,18.45
2022-11-17T09:41:57.370Z,18.98
2022-11-17T09:44:39.824Z,17.73
2022-11-17T09:47:25.814Z,19.92
2022-11-17T09:50:37.996Z,27.08
2022-11-17T09:53:25.243Z,24.33
2022-11-17T09:55:58.033Z,22.45
2022-11-17T09:58:52.749Z,22.98
2022-11-17T10:01:22.009Z,25.35
2022-11-17T10:03:50.893Z,20.70
2022-11-17T10:06:21.474Z,26.83
2022-11-17T10:09:07.002Z,30.45
2022-11-17T10:11:37.300Z,24.42
2022-11-17T10:14:04.269Z,21.75
2022-11-17T10:16:31.488Z,28.15
2022-11-17T10:18:58.482Z,25.27
2022-11-17T10:21:30.427Z,28.80
2022-11-17T10:24:00.066Z,27.98
2022-11-17T10:26:28.057Z,33.22
2022-11-17T10:29:14.210Z,35.92
2022-11-17T10:31:46.263Z,37.70
2022-11-17T10:34:41.653Z,32.67
2022-11-17T10:37:15.228Z,35.90
2022-11-17T10:39:43.289Z,39.92
2022-11-17T10:42:28.551Z,36.28
2022-11-17T10:45:01.571Z,32.20
2022-11-17T10:47:33.743Z,30.55
2022-11-17T10:50:18.391Z,34.80
2022-11-17T10:52:45.673Z,29.88
2022-11-17T10:55:18.827Z,35.92
2022-11-17T10:57:58.794Z,33.10
2022-11-17T11:00:37.379Z,37.55
2022-11-17T11:03:06.610Z,36.70
2022-11-17T11:05:33.622Z,34.30
2022-11-17T11:08:19.831Z,34.58
2022-11-17T11:10:51.522Z,34.88
2022-11-17T11:13:33.082Z,35.70
2022-11-17T11:16:00.085Z,36.15
2022-11-17T11:18:29.968Z,35.72
2022-11-17T11:21:24.347Z,33.17
2022-11-17T11:24:08.874Z,38.75
2022-11-17T11:26:44.841Z,38.15
2022-11-17T11:29:37.514Z,38.13
2022-11-17T11:32:29.249Z,38.30
2022-11-17T11:35:03.998Z,41.08
2022-11-17T11:37:39.924Z,38.25
2022-11-17T11:40:22.268Z,37.83
2022-11-17T11:43:00.411Z,39.15
2022-11-17T11:45:59.223Z,39.35
2022-11-17T11:48:34.347Z,40.95
2022-11-17T11:51:04.070Z,41.55
2022-11-17T11:54:03.441Z,48.80
2022-11-17T11:56:33.911Z,45.83
2022-11-17T11:59:19.722Z,40.75
2022-11-17T12:02:07.233Z,42.28
2022-11-17T12:04:46.886Z,36.28
2022-11-17T12:08:10.207Z,37.50
2022-11-17T12:10:49.287Z,35.25
2022-11-17T12:13:18.280Z,38.55
2022-11-17T12:15:45.134Z,38.60
2022-11-17T12:18:31.522Z,45.20
2022-11-17T12:21:04.928Z,41.22
2022-11-17T12:24:14.035Z,46.53
2022-11-17T12:26:41.241Z,46.28
2022-11-17T12:29:21.187Z,44.22
2022-11-17T12:34:15.341Z,42.33
2022-11-17T12:36:42.183Z,40.33
2022-11-17T12:39:51.763Z,44.55
2022-11-17T12:42:18.627Z,46.13
2022-11-17T12:45:02.413Z,45.83
2022-11-17T12:47:31.809Z,49.90
2022-11-17T12:50:22.492Z,48.38
2022-11-17T12:53:21.721Z,43.33
2022-11-17T12:56:27.464Z,48.07
2022-11-17T12:58:59.926Z,45.75
2022-11-17T13:01:26.524Z,41.53
2022-11-17T13:04:10.486Z,42.35
2022-11-17T13:06:37.551Z,46.67
2022-11-17T13:09:06.860Z,42.45
2022-11-17T13:11:34.344Z,43.88
2022-11-17T13:14:13.095Z,42.17
2022-11-17T13:17:00.389Z,42.65
2022-11-17T13:19:30.133Z,41.38
2022-11-17T13:22:20.150Z,41.17
2022-11-17T13:27:28.294Z,39.67
2022-11-17T13:30:27.809Z,38.72
2022-11-17T13:32:55.885Z,44.15
2022-11-17T13:35:34.766Z,46.05
2022-11-17T13:38:01.589Z,41.05
2022-11-17T13:40:29.217Z,55.17
2022-11-17T13:42:56.632Z,40.58
2022-11-17T13:45:23.385Z,43.60
2022-11-17T13:47:50.887Z,45.05
2022-11-17T13:50:32.217Z,44.78
2022-11-17T13:53:13.607Z,45.05
2022-11-17T13:55:47.371Z,47.13
2022-11-17T13:58:26.263Z,49.65
2022-11-17T14:00:58.501Z,53.10
2022-11-17T14:03:35.840Z,44.53
2022-11-17T14:06:05.177Z,44.60
2022-11-17T14:08:33.484Z,42.38
2022-11-17T14:11:15.783Z,49.08
2022-11-17T14:13:42.542Z,37.55
2022-11-17T14:16:34.149Z,36.58
2022-11-17T14:19:26.099Z,32.58
2022-11-17T14:22:26.187Z,37.08
2022-11-17T14:24:57.430Z,31.92
2022-11-17T14:27:26.943Z,31.13
2022-11-17T14:29:53.644Z,33.67
2022-11-17T14:32:20.273Z,37.85
2022-11-17T14:34:47.103Z,40.22
2022-11-17T14:37:13.987Z,43.60
2022-11-17T14:39:40.710Z,37.28
2022-11-17T14:42:11.186Z,36.45
2022-11-17T14:44:37.912Z,35.75
2022-11-17T14:47:04.531Z,36.72
2022-11-17T14:49:31.931Z,42.30
2022-11-17T14:51:59.413Z,38.60
2022-11-17T14:54:26.408Z,42.22
2022-11-17T14:56:53.069Z,40.22
2022-11-17T14:59:19.943Z,42.08
2022-11-17T15:01:46.689Z,44.97
2022-11-17T15:04:43.353Z,42.47
2022-11-17T15:07:03.463Z,43.73
2022-11-17T15:09:31.585Z,42.78
2022-11-17T15:11:58.277Z,38.30
2022-11-17T15:14:25.095Z,37.80
2022-11-17T15:16:51.799Z,37.78
2022-11-17T15:19:18.703Z,48.80
2022-11-17T15:21:45.412Z,48.03
2022-11-17T15:24:12.221Z,48.13
2022-11-17T15:26:39.036Z,71.63
2022-11-17T15:29:05.738Z,61.63
2022-11-17T15:31:32.376Z,59.45
2022-11-17T15:33:58.970Z,79.40
2022-11-17T15:36:25.776Z,60.72
2022-11-17T15:38:53.481Z,62.72
2022-11-17T15:41:21.283Z,86.43
2022-11-17T15:43:48.069Z,76.28
2022-11-17T15:46:19.078Z,60.53
2022-11-17T15:48:49.087Z,70.38
2022-11-17T15:56:16.689Z,65.70
2022-11-17T15:58:43.951Z,57.78
2022-11-17T16:01:26.169Z,44.45
2022-11-17T16:03:57.834Z,47.38
2022-11-17T16:06:24.584Z,51.28
2022-11-17T16:08:51.225Z,47.53
2022-11-17T16:11:17.990Z,44.20
2022-11-17T16:13:44.769Z,48.95
2022-11-17T16:16:15.798Z,47.90
2022-11-17T16:18:42.539Z,55.88
2022-11-17T16:21:13.520Z,50.95
2022-11-17T16:23:49.967Z,45.50
2022-11-17T16:26:19.148Z,41.72
2022-11-17T16:28:48.824Z,51.40
2022-11-17T16:31:24.510Z,48.90
2022-11-17T16:33:55.569Z,55.35
2022-11-17T16:36:25.017Z,50.83
2022-11-17T16:39:00.735Z,56.85
2022-11-17T16:41:32.694Z,53.03
2022-11-17T16:44:00.315Z,52.28
2022-11-17T16:46:29.468Z,54.70
2022-11-17T16:48:56.975Z,49.88
2022-11-17T16:51:23.811Z,53.22
2022-11-17T16:54:02.964Z,57.58
2022-11-17T16:56:30.685Z,66.07
2022-11-17T16:58:58.690Z,56.25
2022-11-17T17:01:27.734Z,57.20
2022-11-17T17:03:56.879Z,53.28
2022-11-17T17:06:24.266Z,54.87
2022-11-17T17:09:03.150Z,58.83
2022-11-17T17:11:32.065Z,68.53
2022-11-17T17:14:04.721Z,64.82
2022-11-17T17:16:33.875Z,58.92
2022-11-17T17:19:02.077Z,53.57
2022-11-17T17:21:29.688Z,57.00
2022-11-17T17:23:57.401Z,64.40
2022-11-17T17:26:26.379Z,91.53
2022-11-17T17:28:56.785Z,106.68
2022-11-17T17:31:25.488Z,95.53
2022-11-17T17:33:52.996Z,92.22
2022-11-17T17:36:24.886Z,120.95
2022-11-17T17:38:56.066Z,111.32
2022-11-17T17:41:25.806Z,84.03
2022-11-17T17:44:04.082Z,86.22
2022-11-17T17:46:33.471Z,78.68
2022-11-17T17:49:00.192Z,67.95
2022-11-17T17:51:28.731Z,64.78
2022-11-17T17:53:58.276Z,115.72
2022-11-17T17:56:25.510Z,97.15
2022-11-17T17:58:54.916Z,102.75
2022-11-17T18:01:24.563Z,128.63
2022-11-17T18:03:53.970Z,117.38
2022-11-17T18:06:22.255Z,66.93
2022-11-17T18:08:49.454Z,61.15
2022-11-17T18:11:18.537Z,62.35
2022-11-17T18:13:49.920Z,87.03
2022-11-17T18:16:25.287Z,68.95
2022-11-17T18:19:06.556Z,64.85
2022-11-17T18:21:33.934Z,87.25
2022-11-17T18:24:02.073Z,66.80
2022-11-17T18:26:36.153Z,148.80
2022-11-17T18:29:11.546Z,107.00
2022-11-17T18:31:38.393Z,84.55
2022-11-17T18:34:08.306Z,86.20
2022-11-17T18:39:03.583Z,53.20
2022-11-17T18:41:31.216Z,52.13
2022-11-17T18:43:58.786Z,59.50
2022-11-17T18:46:27.467Z,68.85
2022-11-17T18:48:54.207Z,73.63
2022-11-17T18:51:26.258Z,58.95
2022-11-17T18:53:54.408Z,69.15
2022-11-17T18:56:23.952Z,85.90
2022-11-17T18:58:51.223Z,77.25
2022-11-17T19:01:27.915Z,60.85
2022-11-17T19:03:56.662Z,64.10
2022-11-17T19:06:25.004Z,60.22
2022-11-17T19:08:52.814Z,55.67
2022-11-17T19:11:21.240Z,65.50
2022-11-17T19:13:52.365Z,71.95
2022-11-17T19:16:26.534Z,77.03
2022-11-17T19:18:55.087Z,67.15
2022-11-17T19:21:33.644Z,65.32
2022-11-17T19:24:02.769Z,66.10
2022-11-17T19:26:31.834Z,73.53
2022-11-17T19:29:04.133Z,75.47
2022-11-17T19:31:31.270Z,82.07
2022-11-17T19:33:58.302Z,73.15
2022-11-17T19:36:27.601Z,77.30
2022-11-17T19:38:56.105Z,84.60
2022-11-17T19:41:34.713Z,75.72
2022-11-17T19:44:04.030Z,79.45
2022-11-17T19:46:31.694Z,80.95
2022-11-17T19:49:00.718Z,71.40
2022-11-17T19:51:36.885Z,86.07
2022-11-17T19:54:09.250Z,75.68
2022-11-17T19:56:36.550Z,66.13
2022-11-17T19:59:03.759Z,67.78
2022-11-17T20:01:31.586Z,68.07
2022-11-17T20:04:02.815Z,64.72
2022-11-17T20:06:36.991Z,68.35
2022-11-17T20:09:09.062Z,62.78
2022-11-17T20:11:36.489Z,66.57
2022-11-17T20:14:03.451Z,59.97
2022-11-17T20:16:31.985Z,63.50
2022-11-17T20:19:02.459Z,59.78
2022-11-17T20:21:30.764Z,61.65
2022-11-17T20:23:58.976Z,63.70
2022-11-17T20:26:28.476Z,58.88
2022-11-17T20:28:55.372Z,63.45
2022-11-17T20:31:27.906Z,61.58
2022-11-17T20:34:00.645Z,66.95
2022-11-17T20:36:29.562Z,65.57
2022-11-17T20:38:59.077Z,67.88
2022-11-17T20:41:26.560Z,71.65
2022-11-17T20:43:55.353Z,71.45
2022-11-17T20:46:23.215Z,70.40
2022-11-17T20:48:50.975Z,79.20
2022-11-17T20:51:23.566Z,74.57
2022-11-17T20:53:50.764Z,68.30
2022-11-17T20:56:18.251Z,81.20
2022-11-17T20:58:45.784Z,71.18
2022-11-17T21:01:16.071Z,85.75
2022-11-17T21:03:43.605Z,83.05
2022-11-17T21:06:10.790Z,68.88
2022-11-17T21:08:39.544Z,84.97
2022-11-17T21:11:09.375Z,79.15
2022-11-17T21:13:37.995Z,78.97
2022-11-17T21:16:15.393Z,87.03
2022-11-17T21:18:47.271Z,83.72
2022-11-17T21:21:15.239Z,89.78
2022-11-17T21:23:42.945Z,77.80
2022-11-17T21:26:17.021Z,92.32
2022-11-17T21:28:44.095Z,75.68
2022-11-17T21:31:13.250Z,90.53
2022-11-17T21:33:40.734Z,86.47
2022-11-17T21:36:12.345Z,81.80
2022-11-17T21:38:39.795Z,79.72
2022-11-17T21:41:10.003Z,84.18
2022-11-17T21:43:38.727Z,85.00
2022-11-17T21:46:07.890Z,83.80
2022-11-17T21:48:35.550Z,97.27
2022-11-17T21:51:03.090Z,103.63
2022-11-17T21:53:30.174Z,98.70
2022-11-17T21:56:05.508Z,92.18
2022-11-17T21:58:33.562Z,88.55
2022-11-17T22:01:12.002Z,107.15
2022-11-17T22:03:39.947Z,100.85
2022-11-17T22:06:13.234Z,90.95
2022-11-17T22:08:42.322Z,101.10
2022-11-17T22:11:11.905Z,86.50
2022-11-17T22:13:39.161Z,93.93
2022-11-17T22:16:14.066Z,88.43
2022-11-17T22:18:41.701Z,88.47
2022-11-17T22:21:09.294Z,91.65
2022-11-17T22:23:36.052Z,75.78
2022-11-17T22:26:04.663Z,101.32
2022-11-17T22:28:31.398Z,77.47
2022-11-17T22:30:58.087Z,79.22
2022-11-17T22:33:24.748Z,76.10
2022-11-17T22:35:51.519Z,75.18
2022-11-17T22:38:18.223Z,63.45
2022-11-17T22:40:45.384Z,61.25
2022-11-17T22:43:15.255Z,56.47
2022-11-17T22:45:42.445Z,51.47
2022-11-17T22:48:09.645Z,54.03
2022-11-17T22:50:36.788Z,60.08
2022-11-17T22:53:04.038Z,59.00
2022-11-17T22:55:33.568Z,80.05
2022-11-17T22:58:00.255Z,59.10
2022-11-17T23:00:27.279Z,69.22
2022-11-17T23:02:54.095Z,59.25
2022-11-17T23:05:20.864Z,54.50
2022-11-17T23:07:47.733Z,61.85
2022-11-17T23:10:14.882Z,72.68
2022-11-17T23:12:41.676Z,64.60
2022-11-17T23:15:08.717Z,79.28
2022-11-17T23:17:35.481Z,68.47
2022-11-17T23:20:03.500Z,87.82
2022-11-17T23:22:30.227Z,99.80
2022-11-17T23:24:57.009Z,86.30
2022-11-17T23:27:23.684Z,72.78
2022-11-17T23:29:50.360Z,72.80
2022-11-17T23:32:17.458Z,65.38
2022-11-17T23:34:44.184Z,63.53
2022-11-17T23:37:11.008Z,57.95
2022-11-17T23:39:37.816Z,60.20
2022-11-17T23:42:05.300Z,58.95
2022-11-17T23:44:32.136Z,59.15
2022-11-17T23:46:58.806Z,60.10
2022-11-17T23:49:25.539Z,62.22
2022-11-17T23:51:52.286Z,53.38
2022-11-17T23:54:19.069Z,44.13
2022-11-17T23:56:45.772Z,46.38
2022-11-17T23:59:12.466Z,40.20
